sensor_id;sensor_type;location;lat;lon;timestamp;temperature;humidity
8420;DHT22;4247;48.550;8.822;2023-12-28T00:01:53;4.00;99.90
8420;DHT22;4247;48.550;8.822;2023-12-28T00:04:21;4.00;99.90
8420;DHT22;4247;48.550;8.822;2023-12-28T00:06:48;4.10;99.90
8420;DHT22;4247;48.550;8.822;2023-12-28T00:09:14;4.10;99.90
8420;DHT22;4247;48.550;8.822;2023-12-28T00:11:40;4.10;99.90
8420;DHT22;4247;48.550;8.822;2023-12-28T00:14:07;4.20;99.90
8420;DHT22;4247;48.550;8.822;2023-12-28T00:16:33;4.10;99.90
8420;DHT22;4247;48.550;8.822;2023-12-28T00:19:02;4.20;99.90
8420;DHT22;4247;48.550;8.822;2023-12-28T00:21:31;4.20;99.90
8420;DHT22;4247;48.550;8.822;2023-12-28T00:23:58;4.20;99.90
8420;DHT22;4247;48.550;8.822;2023-12-28T00:26:24;4.30;99.90
8420;DHT22;4247;48.550;8.822;2023-12-28T00:28:51;4.30;99.90
8420;DHT22;4247;48.550;8.822;2023-12-28T00:31:18;4.30;99.90
8420;DHT22;4247;48.550;8.822;2023-12-28T00:33:44;4.30;99.90
8420;DHT22;4247;48.550;8.822;2023-12-28T00:36:11;4.30;99.90
8420;DHT22;4247;48.550;8.822;2023-12-28T00:38:39;4.30;99.90
8420;DHT22;4247;48.550;8.822;2023-12-28T00:41:06;4.30;99.90
8420;DHT22;4247;48.550;8.822;2023-12-28T00:43:32;4.30;99.90
8420;DHT22;4247;48.550;8.822;2023-12-28T00:45:59;4.30;99.90
8420;DHT22;4247;48.550;8.822;2023-12-28T00:48:26;4.30;99.90
8420;DHT22;4247;48.550;8.822;2023-12-28T00:50:53;4.30;99.90
8420;DHT22;4247;48.550;8.822;2023-12-28T00:53:21;4.30;99.90
8420;DHT22;4247;48.550;8.822;2023-12-28T00:55:49;4.30;99.90
8420;DHT22;4247;48.550;8.822;2023-12-28T00:58:15;4.30;99.90
8420;DHT22;4247;48.550;8.822;2023-12-28T01:00:42;4.20;99.90
8420;DHT22;4247;48.550;8.822;2023-12-28T01:03:09;4.10;99.90
8420;DHT22;4247;48.550;8.822;2023-12-28T01:05:36;4.10;99.90
8420;DHT22;4247;48.550;8.822;2023-12-28T01:08:03;4.00;99.90
8420;DHT22;4247;48.550;8.822;2023-12-28T01:10:30;3.90;99.90
8420;DHT22;4247;48.550;8.822;2023-12-28T01:12:58;3.90;99.90
8420;DHT22;4247;48.550;8.822;2023-12-28T01:15:24;3.90;99.90
8420;DHT22;4247;48.550;8.822;2023-12-28T01:17:51;3.80;99.90
8420;DHT22;4247;48.550;8.822;2023-12-28T01:20:18;3.80;99.90
8420;DHT22;4247;48.550;8.822;2023-12-28T01:22:44;3.80;99.90
8420;DHT22;4247;48.550;8.822;2023-12-28T01:25:11;3.70;99.90
8420;DHT22;4247;48.550;8.822;2023-12-28T01:27:38;3.70;99.90
8420;DHT22;4247;48.550;8.822;2023-12-28T01:30:07;3.60;99.90
8420;DHT22;4247;48.550;8.822;2023-12-28T01:32:34;3.60;99.90
8420;DHT22;4247;48.550;8.822;2023-12-28T01:35:01;3.60;99.90
8420;DHT22;4247;48.550;8.822;2023-12-28T01:37:28;3.60;99.90
8420;DHT22;4247;48.550;8.822;2023-12-28T01:39:56;3.60;99.90
8420;DHT22;4247;48.550;8.822;2023-12-28T01:42:23;3.60;99.90
8420;DHT22;4247;48.550;8.822;2023-12-28T01:44:50;3.60;99.90
8420;DHT22;4247;48.550;8.822;2023-12-28T01:47:18;3.60;99.90
8420;DHT22;4247;48.550;8.822;2023-12-28T01:49:45;3.60;99.90
8420;DHT22;4247;48.550;8.822;2023-12-28T01:52:12;3.60;99.90
8420;DHT22;4247;48.550;8.822;2023-12-28T01:54:39;3.60;99.90
8420;DHT22;4247;48.550;8.822;2023-12-28T01:57:06;3.60;99.90
8420;DHT22;4247;48.550;8.822;2023-12-28T01:59:33;3.60;99.90
8420;DHT22;4247;48.550;8.822;2023-12-28T02:02:00;3.60;99.90
8420;DHT22;4247;48.550;8.822;2023-12-28T02:04:28;3.60;99.90
8420;DHT22;4247;48.550;8.822;2023-12-28T02:06:57;3.70;99.90
8420;DHT22;4247;48.550;8.822;2023-12-28T02:09:24;3.60;99.90
8420;DHT22;4247;48.550;8.822;2023-12-28T02:11:52;3.60;99.90
8420;DHT22;4247;48.550;8.822;2023-12-28T02:14:19;3.60;99.90
8420;DHT22;4247;48.550;8.822;2023-12-28T02:16:49;3.60;99.90
8420;DHT22;4247;48.550;8.822;2023-12-28T02:19:21;3.60;99.90
8420;DHT22;4247;48.550;8.822;2023-12-28T02:21:52;3.60;99.90
8420;DHT22;4247;48.550;8.822;2023-12-28T02:24:20;3.60;99.90
8420;DHT22;4247;48.550;8.822;2023-12-28T02:26:48;3.60;99.90
8420;DHT22;4247;48.550;8.822;2023-12-28T02:29:15;3.50;99.90
8420;DHT22;4247;48.550;8.822;2023-12-28T02:31:46;3.50;99.90
8420;DHT22;4247;48.550;8.822;2023-12-28T02:34:21;3.60;99.90
8420;DHT22;4247;48.550;8.822;2023-12-28T02:36:50;3.60;99.90
8420;DHT22;4247;48.550;8.822;2023-12-28T02:39:18;3.60;99.90
8420;DHT22;4247;48.550;8.822;2023-12-28T02:41:46;3.70;99.90
8420;DHT22;4247;48.550;8.822;2023-12-28T02:44:14;3.70;99.90
8420;DHT22;4247;48.550;8.822;2023-12-28T02:46:41;3.70;99.90
8420;DHT22;4247;48.550;8.822;2023-12-28T02:49:07;3.80;99.90
8420;DHT22;4247;48.550;8.822;2023-12-28T02:51:37;3.80;99.90
8420;DHT22;4247;48.550;8.822;2023-12-28T02:54:04;3.90;99.90
8420;DHT22;4247;48.550;8.822;2023-12-28T02:56:30;3.90;99.90
8420;DHT22;4247;48.550;8.822;2023-12-28T02:58:58;3.90;99.90
8420;DHT22;4247;48.550;8.822;2023-12-28T03:01:26;4.00;99.90
8420;DHT22;4247;48.550;8.822;2023-12-28T03:03:54;4.00;99.90
8420;DHT22;4247;48.550;8.822;2023-12-28T03:06:20;4.10;99.90
8420;DHT22;4247;48.550;8.822;2023-12-28T03:08:47;4.10;99.90
8420;DHT22;4247;48.550;8.822;2023-12-28T03:11:14;4.10;99.90
8420;DHT22;4247;48.550;8.822;2023-12-28T03:13:41;4.10;99.90
8420;DHT22;4247;48.550;8.822;2023-12-28T03:16:08;4.10;99.90
8420;DHT22;4247;48.550;8.822;2023-12-28T03:18:36;4.10;99.90
8420;DHT22;4247;48.550;8.822;2023-12-28T03:21:02;4.10;99.90
8420;DHT22;4247;48.550;8.822;2023-12-28T03:23:29;4.10;99.90
8420;DHT22;4247;48.550;8.822;2023-12-28T03:25:56;4.10;99.90
8420;DHT22;4247;48.550;8.822;2023-12-28T03:28:22;4.10;99.90
8420;DHT22;4247;48.550;8.822;2023-12-28T03:30:49;4.20;99.90
8420;DHT22;4247;48.550;8.822;2023-12-28T03:33:17;4.30;99.90
8420;DHT22;4247;48.550;8.822;2023-12-28T03:35:44;4.40;99.90
8420;DHT22;4247;48.550;8.822;2023-12-28T03:38:11;4.40;99.90
8420;DHT22;4247;48.550;8.822;2023-12-28T03:40:38;4.50;99.90
8420;DHT22;4247;48.550;8.822;2023-12-28T03:43:05;4.70;99.90
8420;DHT22;4247;48.550;8.822;2023-12-28T03:45:31;4.80;99.90
8420;DHT22;4247;48.550;8.822;2023-12-28T03:47:58;4.80;99.90
8420;DHT22;4247;48.550;8.822;2023-12-28T03:50:25;4.90;99.90
8420;DHT22;4247;48.550;8.822;2023-12-28T03:52:53;5.00;99.90
8420;DHT22;4247;48.550;8.822;2023-12-28T03:55:19;5.10;99.90
8420;DHT22;4247;48.550;8.822;2023-12-28T03:57:46;5.20;99.90
8420;DHT22;4247;48.550;8.822;2023-12-28T04:00:13;5.20;99.90
8420;DHT22;4247;48.550;8.822;2023-12-28T04:02:41;5.30;99.90
8420;DHT22;4247;48.550;8.822;2023-12-28T04:05:08;5.40;99.90
8420;DHT22;4247;48.550;8.822;2023-12-28T04:07:35;5.40;99.90
8420;DHT22;4247;48.550;8.822;2023-12-28T04:10:03;5.50;99.90
8420;DHT22;4247;48.550;8.822;2023-12-28T04:12:30;5.60;99.90
8420;DHT22;4247;48.550;8.822;2023-12-28T04:14:57;5.70;99.90
8420;DHT22;4247;48.550;8.822;2023-12-28T04:17:24;5.70;99.90
8420;DHT22;4247;48.550;8.822;2023-12-28T04:19:50;5.80;99.90
8420;DHT22;4247;48.550;8.822;2023-12-28T04:22:17;5.90;99.90
8420;DHT22;4247;48.550;8.822;2023-12-28T04:24:44;6.00;99.90
8420;DHT22;4247;48.550;8.822;2023-12-28T04:27:12;6.00;99.90
8420;DHT22;4247;48.550;8.822;2023-12-28T04:29:38;6.10;99.90
8420;DHT22;4247;48.550;8.822;2023-12-28T04:32:05;6.10;99.90
8420;DHT22;4247;48.550;8.822;2023-12-28T04:34:32;6.20;99.90
8420;DHT22;4247;48.550;8.822;2023-12-28T04:36:59;6.30;99.90
8420;DHT22;4247;48.550;8.822;2023-12-28T04:39:25;6.30;99.90
8420;DHT22;4247;48.550;8.822;2023-12-28T04:41:52;6.30;99.90
8420;DHT22;4247;48.550;8.822;2023-12-28T04:44:21;6.40;99.90
8420;DHT22;4247;48.550;8.822;2023-12-28T04:46:48;6.50;99.90
8420;DHT22;4247;48.550;8.822;2023-12-28T04:49:14;6.60;99.90
8420;DHT22;4247;48.550;8.822;2023-12-28T04:51:44;6.60;99.90
8420;DHT22;4247;48.550;8.822;2023-12-28T04:54:10;6.70;99.90
8420;DHT22;4247;48.550;8.822;2023-12-28T04:56:37;6.70;99.90
8420;DHT22;4247;48.550;8.822;2023-12-28T04:59:04;6.80;99.90
8420;DHT22;4247;48.550;8.822;2023-12-28T05:01:32;6.80;99.90
8420;DHT22;4247;48.550;8.822;2023-12-28T05:03:58;6.90;99.90
8420;DHT22;4247;48.550;8.822;2023-12-28T05:06:27;6.90;99.90
8420;DHT22;4247;48.550;8.822;2023-12-28T05:08:54;7.00;99.90
8420;DHT22;4247;48.550;8.822;2023-12-28T05:11:21;7.00;99.90
8420;DHT22;4247;48.550;8.822;2023-12-28T05:13:47;7.00;99.90
8420;DHT22;4247;48.550;8.822;2023-12-28T05:16:14;7.00;99.90
8420;DHT22;4247;48.550;8.822;2023-12-28T05:18:42;7.10;99.90
8420;DHT22;4247;48.550;8.822;2023-12-28T05:21:09;7.20;99.90
8420;DHT22;4247;48.550;8.822;2023-12-28T05:23:35;7.20;99.90
8420;DHT22;4247;48.550;8.822;2023-12-28T05:26:02;7.30;99.90
8420;DHT22;4247;48.550;8.822;2023-12-28T05:28:29;7.30;99.90
8420;DHT22;4247;48.550;8.822;2023-12-28T05:30:56;7.40;99.90
8420;DHT22;4247;48.550;8.822;2023-12-28T05:33:24;7.40;99.90
8420;DHT22;4247;48.550;8.822;2023-12-28T05:35:52;7.50;99.90
8420;DHT22;4247;48.550;8.822;2023-12-28T05:38:19;7.50;99.90
8420;DHT22;4247;48.550;8.822;2023-12-28T05:40:45;7.50;99.90
8420;DHT22;4247;48.550;8.822;2023-12-28T05:43:12;7.50;99.90
8420;DHT22;4247;48.550;8.822;2023-12-28T05:45:39;7.50;99.90
8420;DHT22;4247;48.550;8.822;2023-12-28T05:48:05;7.50;99.90
8420;DHT22;4247;48.550;8.822;2023-12-28T05:50:32;7.50;99.90
8420;DHT22;4247;48.550;8.822;2023-12-28T05:53:00;7.50;99.90
8420;DHT22;4247;48.550;8.822;2023-12-28T05:55:28;7.50;99.90
8420;DHT22;4247;48.550;8.822;2023-12-28T05:57:54;7.50;99.90
8420;DHT22;4247;48.550;8.822;2023-12-28T06:00:21;7.50;99.90
8420;DHT22;4247;48.550;8.822;2023-12-28T06:02:48;7.50;99.90
8420;DHT22;4247;48.550;8.822;2023-12-28T06:05:17;7.50;99.90
8420;DHT22;4247;48.550;8.822;2023-12-28T06:07:43;7.50;99.90
8420;DHT22;4247;48.550;8.822;2023-12-28T06:10:12;7.50;99.90
8420;DHT22;4247;48.550;8.822;2023-12-28T06:12:39;7.60;99.90
8420;DHT22;4247;48.550;8.822;2023-12-28T06:15:07;7.60;99.90
8420;DHT22;4247;48.550;8.822;2023-12-28T06:17:34;7.60;99.90
8420;DHT22;4247;48.550;8.822;2023-12-28T06:20:00;7.60;99.90
8420;DHT22;4247;48.550;8.822;2023-12-28T06:22:27;7.60;99.90
8420;DHT22;4247;48.550;8.822;2023-12-28T06:24:55;7.50;99.90
8420;DHT22;4247;48.550;8.822;2023-12-28T06:27:23;7.50;99.90
8420;DHT22;4247;48.550;8.822;2023-12-28T06:29:50;7.50;99.90
8420;DHT22;4247;48.550;8.822;2023-12-28T06:32:17;7.50;99.90
8420;DHT22;4247;48.550;8.822;2023-12-28T06:34:43;7.50;99.90
8420;DHT22;4247;48.550;8.822;2023-12-28T06:37:10;7.40;99.90
8420;DHT22;4247;48.550;8.822;2023-12-28T06:39:37;7.40;99.90
8420;DHT22;4247;48.550;8.822;2023-12-28T06:42:05;7.40;99.90
8420;DHT22;4247;48.550;8.822;2023-12-28T06:44:34;7.50;99.90
8420;DHT22;4247;48.550;8.822;2023-12-28T06:47:00;7.50;99.90
8420;DHT22;4247;48.550;8.822;2023-12-28T06:49:27;7.50;99.90
8420;DHT22;4247;48.550;8.822;2023-12-28T06:51:54;7.50;99.90
8420;DHT22;4247;48.550;8.822;2023-12-28T06:54:21;7.60;99.90
8420;DHT22;4247;48.550;8.822;2023-12-28T06:56:48;7.60;99.90
8420;DHT22;4247;48.550;8.822;2023-12-28T06:59:16;7.70;99.90
8420;DHT22;4247;48.550;8.822;2023-12-28T07:01:45;7.70;99.90
8420;DHT22;4247;48.550;8.822;2023-12-28T07:04:13;7.80;99.90
8420;DHT22;4247;48.550;8.822;2023-12-28T07:06:40;7.90;99.90
8420;DHT22;4247;48.550;8.822;2023-12-28T07:09:07;7.90;99.90
8420;DHT22;4247;48.550;8.822;2023-12-28T07:11:34;8.00;99.90
8420;DHT22;4247;48.550;8.822;2023-12-28T07:14:00;8.10;99.90
8420;DHT22;4247;48.550;8.822;2023-12-28T07:16:27;8.10;99.90
8420;DHT22;4247;48.550;8.822;2023-12-28T07:18:55;8.20;99.90
8420;DHT22;4247;48.550;8.822;2023-12-28T07:21:21;8.30;99.90
8420;DHT22;4247;48.550;8.822;2023-12-28T07:23:47;8.30;99.90
8420;DHT22;4247;48.550;8.822;2023-12-28T07:26:15;8.30;99.90
8420;DHT22;4247;48.550;8.822;2023-12-28T07:28:42;8.40;99.90
8420;DHT22;4247;48.550;8.822;2023-12-28T07:31:10;8.40;99.90
8420;DHT22;4247;48.550;8.822;2023-12-28T07:33:37;8.50;99.90
8420;DHT22;4247;48.550;8.822;2023-12-28T07:36:05;8.50;99.90
8420;DHT22;4247;48.550;8.822;2023-12-28T07:38:32;8.50;99.90
8420;DHT22;4247;48.550;8.822;2023-12-28T07:40:59;8.50;99.90
8420;DHT22;4247;48.550;8.822;2023-12-28T07:43:26;8.50;99.90
8420;DHT22;4247;48.550;8.822;2023-12-28T07:45:52;8.60;99.90
8420;DHT22;4247;48.550;8.822;2023-12-28T07:48:19;8.50;99.90
8420;DHT22;4247;48.550;8.822;2023-12-28T07:50:45;8.60;99.90
8420;DHT22;4247;48.550;8.822;2023-12-28T07:53:15;8.60;99.90
8420;DHT22;4247;48.550;8.822;2023-12-28T07:55:42;8.60;99.90
8420;DHT22;4247;48.550;8.822;2023-12-28T07:58:09;8.60;99.90
8420;DHT22;4247;48.550;8.822;2023-12-28T08:00:36;8.70;99.90
8420;DHT22;4247;48.550;8.822;2023-12-28T08:03:03;8.70;99.90
8420;DHT22;4247;48.550;8.822;2023-12-28T08:05:29;8.70;99.90
8420;DHT22;4247;48.550;8.822;2023-12-28T08:07:56;8.70;99.90
8420;DHT22;4247;48.550;8.822;2023-12-28T08:10:24;8.70;99.90
8420;DHT22;4247;48.550;8.822;2023-12-28T08:12:51;8.70;99.90
8420;DHT22;4247;48.550;8.822;2023-12-28T08:15:18;8.70;99.90
8420;DHT22;4247;48.550;8.822;2023-12-28T08:17:45;8.70;99.90
8420;DHT22;4247;48.550;8.822;2023-12-28T08:20:11;8.70;99.90
8420;DHT22;4247;48.550;8.822;2023-12-28T08:22:39;8.80;99.90
8420;DHT22;4247;48.550;8.822;2023-12-28T08:25:06;8.80;99.90
8420;DHT22;4247;48.550;8.822;2023-12-28T08:27:34;8.80;99.90
8420;DHT22;4247;48.550;8.822;2023-12-28T08:30:01;8.90;99.90
8420;DHT22;4247;48.550;8.822;2023-12-28T08:32:27;8.90;99.90
8420;DHT22;4247;48.550;8.822;2023-12-28T08:34:54;8.90;99.90
8420;DHT22;4247;48.550;8.822;2023-12-28T08:37:20;8.90;99.90
8420;DHT22;4247;48.550;8.822;2023-12-28T08:39:47;8.90;99.90
8420;DHT22;4247;48.550;8.822;2023-12-28T08:42:14;9.00;99.90
8420;DHT22;4247;48.550;8.822;2023-12-28T08:44:42;9.00;99.90
8420;DHT22;4247;48.550;8.822;2023-12-28T08:47:08;9.00;99.90
8420;DHT22;4247;48.550;8.822;2023-12-28T08:49:35;9.00;99.90
8420;DHT22;4247;48.550;8.822;2023-12-28T08:52:02;9.00;99.90
8420;DHT22;4247;48.550;8.822;2023-12-28T08:54:29;9.10;99.90
8420;DHT22;4247;48.550;8.822;2023-12-28T08:56:56;9.10;99.90
8420;DHT22;4247;48.550;8.822;2023-12-28T08:59:22;9.10;99.90
8420;DHT22;4247;48.550;8.822;2023-12-28T09:01:53;9.10;99.90
8420;DHT22;4247;48.550;8.822;2023-12-28T09:04:19;9.10;99.90
8420;DHT22;4247;48.550;8.822;2023-12-28T09:06:46;9.10;99.90
8420;DHT22;4247;48.550;8.822;2023-12-28T09:09:13;9.20;99.90
8420;DHT22;4247;48.550;8.822;2023-12-28T09:11:40;9.10;99.90
8420;DHT22;4247;48.550;8.822;2023-12-28T09:14:06;9.20;99.90
8420;DHT22;4247;48.550;8.822;2023-12-28T09:16:33;9.20;99.90
8420;DHT22;4247;48.550;8.822;2023-12-28T09:19:02;9.20;99.90
8420;DHT22;4247;48.550;8.822;2023-12-28T09:21:28;9.20;99.90
8420;DHT22;4247;48.550;8.822;2023-12-28T09:23:55;9.30;99.90
8420;DHT22;4247;48.550;8.822;2023-12-28T09:26:22;9.30;99.90
8420;DHT22;4247;48.550;8.822;2023-12-28T09:28:49;9.30;99.90
8420;DHT22;4247;48.550;8.822;2023-12-28T09:31:15;9.30;99.90
8420;DHT22;4247;48.550;8.822;2023-12-28T09:33:43;9.30;99.90
8420;DHT22;4247;48.550;8.822;2023-12-28T09:36:11;9.40;99.90
8420;DHT22;4247;48.550;8.822;2023-12-28T09:38:38;9.30;99.90
8420;DHT22;4247;48.550;8.822;2023-12-28T09:41:10;9.40;99.90
8420;DHT22;4247;48.550;8.822;2023-12-28T09:43:43;9.40;99.90
8420;DHT22;4247;48.550;8.822;2023-12-28T09:46:12;9.40;99.90
8420;DHT22;4247;48.550;8.822;2023-12-28T09:48:40;9.40;99.90
8420;DHT22;4247;48.550;8.822;2023-12-28T09:51:07;9.40;99.90
8420;DHT22;4247;48.550;8.822;2023-12-28T09:53:38;9.50;99.90
8420;DHT22;4247;48.550;8.822;2023-12-28T09:56:05;9.50;99.90
8420;DHT22;4247;48.550;8.822;2023-12-28T09:58:33;9.60;99.90
8420;DHT22;4247;48.550;8.822;2023-12-28T10:01:02;9.70;99.90
8420;DHT22;4247;48.550;8.822;2023-12-28T10:03:29;9.70;99.90
8420;DHT22;4247;48.550;8.822;2023-12-28T10:05:56;9.80;99.90
8420;DHT22;4247;48.550;8.822;2023-12-28T10:08:23;9.80;99.90
8420;DHT22;4247;48.550;8.822;2023-12-28T10:10:51;9.90;99.90
8420;DHT22;4247;48.550;8.822;2023-12-28T10:13:19;9.90;99.90
8420;DHT22;4247;48.550;8.822;2023-12-28T10:15:48;9.90;99.90
8420;DHT22;4247;48.550;8.822;2023-12-28T10:18:17;9.90;99.90
8420;DHT22;4247;48.550;8.822;2023-12-28T10:20:49;10.00;99.90
8420;DHT22;4247;48.550;8.822;2023-12-28T10:23:16;10.00;99.90
8420;DHT22;4247;48.550;8.822;2023-12-28T10:25:42;10.00;99.90
8420;DHT22;4247;48.550;8.822;2023-12-28T10:28:11;10.00;99.90
8420;DHT22;4247;48.550;8.822;2023-12-28T10:30:39;10.00;99.90
8420;DHT22;4247;48.550;8.822;2023-12-28T10:33:07;10.10;99.90
8420;DHT22;4247;48.550;8.822;2023-12-28T10:35:34;10.20;99.90
8420;DHT22;4247;48.550;8.822;2023-12-28T10:38:00;10.20;99.90
8420;DHT22;4247;48.550;8.822;2023-12-28T10:40:29;10.30;99.90
8420;DHT22;4247;48.550;8.822;2023-12-28T10:42:58;10.40;99.90
8420;DHT22;4247;48.550;8.822;2023-12-28T10:45:31;10.40;99.90
8420;DHT22;4247;48.550;8.822;2023-12-28T10:48:04;10.40;99.90
8420;DHT22;4247;48.550;8.822;2023-12-28T10:50:38;10.40;99.90
8420;DHT22;4247;48.550;8.822;2023-12-28T10:53:25;10.50;99.90
8420;DHT22;4247;48.550;8.822;2023-12-28T10:56:00;10.50;99.90
8420;DHT22;4247;48.550;8.822;2023-12-28T10:58:37;10.50;99.90
8420;DHT22;4247;48.550;8.822;2023-12-28T11:01:09;10.50;99.90
8420;DHT22;4247;48.550;8.822;2023-12-28T11:03:38;10.60;99.90
8420;DHT22;4247;48.550;8.822;2023-12-28T11:06:07;10.60;99.90
8420;DHT22;4247;48.550;8.822;2023-12-28T11:08:35;10.60;99.90
8420;DHT22;4247;48.550;8.822;2023-12-28T11:11:05;10.60;99.90
8420;DHT22;4247;48.550;8.822;2023-12-28T11:13:33;10.60;99.90
8420;DHT22;4247;48.550;8.822;2023-12-28T11:16:01;10.60;99.90
8420;DHT22;4247;48.550;8.822;2023-12-28T11:18:31;10.60;99.90
8420;DHT22;4247;48.550;8.822;2023-12-28T11:20:58;10.60;99.90
8420;DHT22;4247;48.550;8.822;2023-12-28T11:23:25;10.60;99.90
8420;DHT22;4247;48.550;8.822;2023-12-28T11:25:52;10.70;99.90
8420;DHT22;4247;48.550;8.822;2023-12-28T11:28:19;10.70;99.90
8420;DHT22;4247;48.550;8.822;2023-12-28T11:30:47;10.70;99.90
8420;DHT22;4247;48.550;8.822;2023-12-28T11:33:12;10.70;99.90
8420;DHT22;4247;48.550;8.822;2023-12-28T11:35:40;10.70;99.90
8420;DHT22;4247;48.550;8.822;2023-12-28T11:38:09;10.70;99.90
8420;DHT22;4247;48.550;8.822;2023-12-28T11:40:42;10.70;99.90
8420;DHT22;4247;48.550;8.822;2023-12-28T11:43:17;10.70;99.90
8420;DHT22;4247;48.550;8.822;2023-12-28T11:45:48;10.60;99.90
8420;DHT22;4247;48.550;8.822;2023-12-28T11:48:22;10.70;99.90
8420;DHT22;4247;48.550;8.822;2023-12-28T11:50:51;10.70;99.90
8420;DHT22;4247;48.550;8.822;2023-12-28T11:53:19;10.70;99.90
8420;DHT22;4247;48.550;8.822;2023-12-28T11:55:46;10.70;99.90
8420;DHT22;4247;48.550;8.822;2023-12-28T11:58:13;10.70;99.90
8420;DHT22;4247;48.550;8.822;2023-12-28T12:00:40;10.60;99.90
8420;DHT22;4247;48.550;8.822;2023-12-28T12:03:09;10.60;99.90
8420;DHT22;4247;48.550;8.822;2023-12-28T12:05:36;10.70;99.90
8420;DHT22;4247;48.550;8.822;2023-12-28T12:08:06;10.70;99.90
8420;DHT22;4247;48.550;8.822;2023-12-28T12:10:34;10.60;99.90
8420;DHT22;4247;48.550;8.822;2023-12-28T12:13:01;10.60;99.90
8420;DHT22;4247;48.550;8.822;2023-12-28T12:15:28;10.60;99.90
8420;DHT22;4247;48.550;8.822;2023-12-28T12:17:55;10.50;99.90
8420;DHT22;4247;48.550;8.822;2023-12-28T12:20:22;10.50;99.90
8420;DHT22;4247;48.550;8.822;2023-12-28T12:22:49;10.50;99.90
8420;DHT22;4247;48.550;8.822;2023-12-28T12:25:17;10.40;99.90
8420;DHT22;4247;48.550;8.822;2023-12-28T12:27:45;10.50;99.90
8420;DHT22;4247;48.550;8.822;2023-12-28T12:30:12;10.40;99.90
8420;DHT22;4247;48.550;8.822;2023-12-28T12:32:39;10.40;99.90
8420;DHT22;4247;48.550;8.822;2023-12-28T12:35:09;10.30;99.90
8420;DHT22;4247;48.550;8.822;2023-12-28T12:37:37;10.30;99.90
8420;DHT22;4247;48.550;8.822;2023-12-28T12:40:05;10.30;99.90
8420;DHT22;4247;48.550;8.822;2023-12-28T12:42:33;10.30;99.90
8420;DHT22;4247;48.550;8.822;2023-12-28T12:45:01;10.30;99.90
8420;DHT22;4247;48.550;8.822;2023-12-28T12:47:32;10.30;99.90
8420;DHT22;4247;48.550;8.822;2023-12-28T12:49:59;10.30;99.90
8420;DHT22;4247;48.550;8.822;2023-12-28T12:52:26;10.30;99.90
8420;DHT22;4247;48.550;8.822;2023-12-28T12:55:01;10.30;99.90
8420;DHT22;4247;48.550;8.822;2023-12-28T12:57:29;10.30;99.90
8420;DHT22;4247;48.550;8.822;2023-12-28T12:59:57;10.30;99.90
8420;DHT22;4247;48.550;8.822;2023-12-28T13:02:27;10.30;99.90
8420;DHT22;4247;48.550;8.822;2023-12-28T13:04:54;10.30;99.90
8420;DHT22;4247;48.550;8.822;2023-12-28T13:07:21;10.30;99.90
8420;DHT22;4247;48.550;8.822;2023-12-28T13:09:49;10.40;99.90
8420;DHT22;4247;48.550;8.822;2023-12-28T13:12:15;10.30;99.90
8420;DHT22;4247;48.550;8.822;2023-12-28T13:14:42;10.30;99.90
8420;DHT22;4247;48.550;8.822;2023-12-28T13:17:11;10.30;99.90
8420;DHT22;4247;48.550;8.822;2023-12-28T13:19:38;10.30;99.90
8420;DHT22;4247;48.550;8.822;2023-12-28T13:22:04;10.30;99.90
8420;DHT22;4247;48.550;8.822;2023-12-28T13:24:31;10.30;99.90
8420;DHT22;4247;48.550;8.822;2023-12-28T13:26:58;10.30;99.90
8420;DHT22;4247;48.550;8.822;2023-12-28T13:29:25;10.30;99.90
8420;DHT22;4247;48.550;8.822;2023-12-28T13:31:52;10.30;99.90
8420;DHT22;4247;48.550;8.822;2023-12-28T13:34:20;10.30;99.90
8420;DHT22;4247;48.550;8.822;2023-12-28T13:36:48;10.20;99.90
8420;DHT22;4247;48.550;8.822;2023-12-28T13:39:15;10.20;99.90
8420;DHT22;4247;48.550;8.822;2023-12-28T13:41:43;10.20;99.90
8420;DHT22;4247;48.550;8.822;2023-12-28T13:44:09;10.10;99.90
8420;DHT22;4247;48.550;8.822;2023-12-28T13:46:38;10.10;99.90
8420;DHT22;4247;48.550;8.822;2023-12-28T13:49:04;10.20;99.90
8420;DHT22;4247;48.550;8.822;2023-12-28T13:51:34;10.10;99.90
8420;DHT22;4247;48.550;8.822;2023-12-28T13:54:01;10.10;99.90
8420;DHT22;4247;48.550;8.822;2023-12-28T13:56:28;10.10;99.90
8420;DHT22;4247;48.550;8.822;2023-12-28T13:58:55;10.10;99.90
8420;DHT22;4247;48.550;8.822;2023-12-28T14:01:21;10.10;99.90
8420;DHT22;4247;48.550;8.822;2023-12-28T14:03:48;10.10;99.90
8420;DHT22;4247;48.550;8.822;2023-12-28T14:06:17;10.00;99.90
8420;DHT22;4247;48.550;8.822;2023-12-28T14:08:45;10.00;99.90
8420;DHT22;4247;48.550;8.822;2023-12-28T14:11:12;9.90;99.90
8420;DHT22;4247;48.550;8.822;2023-12-28T14:13:39;9.90;99.90
8420;DHT22;4247;48.550;8.822;2023-12-28T14:16:06;9.90;99.90
8420;DHT22;4247;48.550;8.822;2023-12-28T14:18:34;9.80;99.90
8420;DHT22;4247;48.550;8.822;2023-12-28T14:21:00;9.80;99.90
8420;DHT22;4247;48.550;8.822;2023-12-28T14:23:27;9.80;99.90
8420;DHT22;4247;48.550;8.822;2023-12-28T14:25:56;9.80;99.90
8420;DHT22;4247;48.550;8.822;2023-12-28T14:28:23;9.80;99.90
8420;DHT22;4247;48.550;8.822;2023-12-28T14:30:52;9.80;99.90
8420;DHT22;4247;48.550;8.822;2023-12-28T14:33:19;9.70;99.90
8420;DHT22;4247;48.550;8.822;2023-12-28T14:35:46;9.60;99.90
8420;DHT22;4247;48.550;8.822;2023-12-28T14:38:14;9.60;99.90
8420;DHT22;4247;48.550;8.822;2023-12-28T14:40:41;9.50;99.90
8420;DHT22;4247;48.550;8.822;2023-12-28T14:43:09;9.50;99.90
8420;DHT22;4247;48.550;8.822;2023-12-28T14:45:35;9.50;99.90
8420;DHT22;4247;48.550;8.822;2023-12-28T14:48:02;9.40;99.90
8420;DHT22;4247;48.550;8.822;2023-12-28T14:50:29;9.40;99.90
8420;DHT22;4247;48.550;8.822;2023-12-28T14:52:56;9.30;99.90
8420;DHT22;4247;48.550;8.822;2023-12-28T14:55:23;9.30;99.90
8420;DHT22;4247;48.550;8.822;2023-12-28T14:57:50;9.30;99.90
8420;DHT22;4247;48.550;8.822;2023-12-28T15:00:18;9.30;99.90
8420;DHT22;4247;48.550;8.822;2023-12-28T15:02:46;9.30;99.90
8420;DHT22;4247;48.550;8.822;2023-12-28T15:05:12;9.30;99.90
8420;DHT22;4247;48.550;8.822;2023-12-28T15:07:39;9.30;99.90
8420;DHT22;4247;48.550;8.822;2023-12-28T15:10:07;9.30;99.90
8420;DHT22;4247;48.550;8.822;2023-12-28T15:12:35;9.30;99.90
8420;DHT22;4247;48.550;8.822;2023-12-28T15:15:02;9.30;99.90
8420;DHT22;4247;48.550;8.822;2023-12-28T15:17:31;9.30;99.90
8420;DHT22;4247;48.550;8.822;2023-12-28T15:19:58;9.30;99.90
8420;DHT22;4247;48.550;8.822;2023-12-28T15:22:25;9.30;99.90
8420;DHT22;4247;48.550;8.822;2023-12-28T15:24:52;9.30;99.90
8420;DHT22;4247;48.550;8.822;2023-12-28T15:27:19;9.30;99.90
8420;DHT22;4247;48.550;8.822;2023-12-28T15:29:46;9.30;99.90
8420;DHT22;4247;48.550;8.822;2023-12-28T15:32:12;9.20;99.90
8420;DHT22;4247;48.550;8.822;2023-12-28T15:34:40;9.20;99.90
8420;DHT22;4247;48.550;8.822;2023-12-28T15:37:07;9.00;99.90
8420;DHT22;4247;48.550;8.822;2023-12-28T15:39:34;9.00;99.90
8420;DHT22;4247;48.550;8.822;2023-12-28T15:42:01;9.00;99.90
8420;DHT22;4247;48.550;8.822;2023-12-28T15:44:28;8.90;99.90
8420;DHT22;4247;48.550;8.822;2023-12-28T15:46:56;8.90;99.90
8420;DHT22;4247;48.550;8.822;2023-12-28T15:49:23;8.90;99.90
8420;DHT22;4247;48.550;8.822;2023-12-28T15:51:51;8.90;99.90
8420;DHT22;4247;48.550;8.822;2023-12-28T15:54:18;8.90;99.90
8420;DHT22;4247;48.550;8.822;2023-12-28T15:56:45;8.80;99.90
8420;DHT22;4247;48.550;8.822;2023-12-28T15:59:12;8.80;99.90
8420;DHT22;4247;48.550;8.822;2023-12-28T16:01:38;8.80;99.90
8420;DHT22;4247;48.550;8.822;2023-12-28T16:04:04;8.90;99.90
8420;DHT22;4247;48.550;8.822;2023-12-28T16:06:32;8.90;99.90
8420;DHT22;4247;48.550;8.822;2023-12-28T16:09:00;8.90;99.90
8420;DHT22;4247;48.550;8.822;2023-12-28T16:11:27;8.90;99.90
8420;DHT22;4247;48.550;8.822;2023-12-28T16:13:54;8.90;99.90
8420;DHT22;4247;48.550;8.822;2023-12-28T16:16:22;8.90;99.90